Glastonbury, CT (06033)

8:40 PM EDT on October 24, 2014 (GMT -0400)
Strickland St | Change Station
CLOSE
Current Station
Personal Weather Station
Location: Glastonbury, CT
Elevation: 441 ft
Nearby Weather Stations

Elev 441 ft 41.71 °N, 72.54 °W | Updated 46 seconds ago

Overcast
Overcast
49.9 °F
Feels Like 50 °F
N
0.0
Wind Variable Wind from NW
Gusts 2.0 mph

Today
High -- | Low -- °F
--% Chance of Precip.
Yesterday
High -- | Low -- °F
Precip. -- in
7:12 AM 5:55 PM
New Moon, 1% visible
Pressure 29.78 in
Visibility 10.0 miles
Clouds Overcast 3800 ft
Windchill 50 °F
Dew Point 44 °F
Humidity 81%
Rainfall 0.11 in
Snow Depth Not available.
UV 0 out of 12
Pollen .10 out of 12
Air Quality Not available.
Flu Activity Not available.
METAR KHFD 242353Z VRB06KT 10SM OVC038 12/06 A2978 RMK AO2 SLP083 T01170056 10128 20117 50007

More Conditions Fewer Conditions

Pressure 29.78 in
Visibility 10.0 miles
Clouds Overcast 3800 ft
Windchill 50 °F
Dew Point 44 °F
Humidity 81%
Rainfall 0.11 in
Snow Depth Not available.
UV 0 out of 12
Pollen .10 out of 12
Air Quality Not available.
Flu Activity Not available.
METAR KHFD 242353Z VRB06KT 10SM OVC038 12/06 A2978 RMK AO2 SLP083 T01170056 10128 20117 50007

More Conditions Fewer Conditions

10-Day Weather Forecast

Almanac

Astronomy

Oct. 24, 2014 Rise Set
Actual Time 7:12 AM EDT 5:55 PM EDT
Civil Twilight 6:44 AM EDT 6:23 PM EDT
Nautical Twilight 6:11 AM EDT 6:56 PM EDT
Astronomical Twilight 5:39 AM EDT 7:28 PM EDT
Moon 7:49 AM EDT (10/24) 6:32 PM EDT (10/24)
Length of Visible Light 11h 39m
Length of Day
10h 42m
Tomorrow will be 2m 34s shorter.
New Moon, 1% of the Moon is Illuminated
Today
New Moon
Oct 30
First Quarter
Nov 6
Full
Nov 14
Last Quarter
Nov 22
New

Today's Extremes

State Highs State Lows

Community

WunderPhotos

Upload Photos

1,764,735 photos uploaded!

WunderBlogs® & News

Nearby

Snow Depth

Station Depth Elevation
No new snow has been reported.

Earthquake Activity

City Distance Mag. Time & Date
No recent earthquake activity has been reported nearby.
Minimum magnitude displayed is 2.5.

Coastal Water Temperatures

Place Temperature
New London, CT 61.0 °F
New Haven, CT 59.0 °F
Newport, RI 60.1 °F
Quonset Point, RI 57.9 °F
Conimicut Light, RI 60.1 °F
Providence, RI 60.1 °F

Nearby Weather Stations